Time;durP1;ratioP1;P1;durP2;ratioP2;P2;SDS_P1;SDS_P2;PMS_P1;PMS_P2;Temp;Humidity;BMP_temperature;BMP_pressure;BME280_temperature;BME280_humidity;BME280_pressure;Samples;Min_cycle;Max_cycle;Signal;HPM_P1;HPM_P2
2022/02/28 00:00:19;;;;;;;10.35;6.00;;;2.20;99.90;;;;;;5098666;28;20037;-69
2022/02/28 00:02:49;;;;;;;8.13;5.13;;;2.30;99.90;;;;;;5071960;28;20123;-69
2022/02/28 00:05:15;;;;;;;11.15;6.28;;;2.10;99.90;;;;;;5049244;28;20033;-68
2022/02/28 00:07:40;;;;;;;16.35;5.82;;;2.20;99.90;;;;;;5073384;28;20118;-69
2022/02/28 00:10:07;;;;;;;10.43;5.47;;;2.20;99.90;;;;;;5097473;28;20036;-69
2022/02/28 00:12:33;;;;;;;11.13;5.72;;;2.20;99.90;;;;;;5073244;28;20032;-69
2022/02/28 00:14:59;;;;;;;11.93;6.68;;;2.10;99.90;;;;;;5070433;28;20041;-69
2022/02/28 00:17:26;;;;;;;11.70;5.38;;;2.10;99.90;;;;;;5081834;28;20055;-69
2022/02/28 00:19:51;;;;;;;11.30;4.78;;;2.10;99.90;;;;;;5088527;28;20098;-69
2022/02/28 00:22:17;;;;;;;9.32;5.10;;;2.30;99.90;;;;;;5070939;28;20040;-69
2022/02/28 00:24:42;;;;;;;11.57;5.90;;;2.00;99.90;;;;;;5068005;28;20109;-68
2022/02/28 00:27:08;;;;;;;10.85;5.55;;;2.00;99.90;;;;;;5069271;28;20028;-68
2022/02/28 00:29:34;;;;;;;10.00;5.70;;;2.00;99.90;;;;;;5068057;28;20519;-69
2022/02/28 00:31:59;;;;;;;12.18;6.13;;;2.00;99.90;;;;;;5070578;28;20029;-68
2022/02/28 00:34:25;;;;;;;9.98;5.85;;;1.90;99.90;;;;;;5071656;28;20156;-69
2022/02/28 00:36:50;;;;;;;12.05;5.88;;;1.90;99.90;;;;;;5101895;28;20040;-69
2022/02/28 00:39:16;;;;;;;14.60;5.90;;;1.90;99.90;;;;;;5072579;28;20052;-68
2022/02/28 00:41:42;;;;;;;9.88;5.30;;;1.90;99.90;;;;;;5072705;28;20045;-68
2022/02/28 00:44:07;;;;;;;12.13;5.60;;;1.90;99.90;;;;;;5069042;28;20040;-69
2022/02/28 00:46:33;;;;;;;13.98;6.18;;;1.90;99.90;;;;;;5071238;28;20123;-69
2022/02/28 00:48:59;;;;;;;10.35;5.50;;;1.90;99.90;;;;;;5069900;28;20392;-68
2022/02/28 00:51:24;;;;;;;10.70;5.05;;;1.80;99.90;;;;;;5070443;28;20040;-69
2022/02/28 00:53:50;;;;;;;15.40;5.68;;;1.90;99.90;;;;;;5070900;28;20041;-68
2022/02/28 00:56:15;;;;;;;8.20;5.45;;;1.90;99.90;;;;;;5071810;28;20518;-68
2022/02/28 00:58:41;;;;;;;12.00;5.43;;;1.80;99.90;;;;;;5065644;28;20085;-68
2022/02/28 01:01:07;;;;;;;9.75;5.85;;;1.80;99.90;;;;;;5090820;28;20045;-68
2022/02/28 01:03:32;;;;;;;9.73;6.00;;;1.80;99.90;;;;;;5068680;28;20071;-68
2022/02/28 01:05:58;;;;;;;14.90;5.78;;;1.80;99.90;;;;;;5067667;28;20079;-68
2022/02/28 01:08:24;;;;;;;9.00;5.68;;;1.80;99.90;;;;;;5076655;28;20090;-68
2022/02/28 01:10:50;;;;;;;10.68;5.30;;;1.80;99.90;;;;;;5070773;28;20041;-68
2022/02/28 01:13:17;;;;;;;10.52;5.65;;;1.70;99.90;;;;;;5087880;28;20427;-68
2022/02/28 01:15:42;;;;;;;10.32;6.03;;;1.70;99.90;;;;;;5068729;28;20032;-68
2022/02/28 01:18:08;;;;;;;17.45;6.40;;;1.70;99.90;;;;;;5065341;28;20097;-68
2022/02/28 01:20:35;;;;;;;13.38;5.95;;;1.70;99.90;;;;;;5067528;28;20040;-69
2022/02/28 01:23:01;;;;;;;11.38;5.57;;;1.60;99.90;;;;;;5067540;28;20047;-68
2022/02/28 01:25:26;;;;;;;14.63;5.85;;;1.60;99.90;;;;;;5070820;28;20040;-68
2022/02/28 01:27:52;;;;;;;11.75;6.05;;;2.20;99.90;;;;;;5069666;28;20071;-68
2022/02/28 01:30:18;;;;;;;13.93;5.82;;;1.60;99.90;;;;;;5085979;28;20041;-68
2022/02/28 01:32:43;;;;;;;11.45;5.30;;;1.60;99.90;;;;;;5065793;28;20032;-68
2022/02/28 01:35:10;;;;;;;13.80;6.10;;;1.60;99.90;;;;;;5067877;28;20028;-68
2022/02/28 01:37:37;;;;;;;14.45;6.50;;;1.60;99.90;;;;;;5070301;28;20036;-68
2022/02/28 01:40:04;;;;;;;12.93;5.82;;;1.60;99.90;;;;;;5068215;28;20040;-68
2022/02/28 01:42:30;;;;;;;12.10;6.57;;;1.60;99.90;;;;;;5054035;28;20035;-69
2022/02/28 01:44:56;;;;;;;9.93;5.55;;;1.60;99.90;;;;;;5068043;28;20040;-68
2022/02/28 01:47:21;;;;;;;9.40;5.65;;;1.50;99.90;;;;;;5066758;28;20140;-68
2022/02/28 01:49:47;;;;;;;12.07;6.63;;;1.50;99.90;;;;;;5067625;28;20047;-68
2022/02/28 01:52:14;;;;;;;12.63;6.47;;;1.50;99.90;;;;;;5068718;28;20044;-68
2022/02/28 01:54:40;;;;;;;11.13;5.18;;;1.60;99.90;;;;;;5067122;28;20045;-68
2022/02/28 01:57:06;;;;;;;14.45;6.15;;;1.50;99.90;;;;;;5070699;28;20494;-68
2022/02/28 01:59:32;;;;;;;9.52;6.05;;;1.60;99.90;;;;;;5069621;28;20083;-69
2022/02/28 02:01:58;;;;;;;11.40;5.80;;;1.60;99.90;;;;;;5066370;28;20118;-69
2022/02/28 02:04:23;;;;;;;9.77;6.18;;;1.60;99.90;;;;;;5068251;28;20040;-69
2022/02/28 02:06:49;;;;;;;12.23;6.15;;;1.60;99.90;;;;;;5066391;28;20035;-69
2022/02/28 02:09:16;;;;;;;14.35;6.82;;;1.50;99.90;;;;;;5070417;28;20522;-68
2022/02/28 02:11:41;;;;;;;11.05;5.57;;;1.50;99.90;;;;;;5062452;28;20098;-69
2022/02/28 02:14:09;;;;;;;16.65;7.00;;;1.40;99.90;;;;;;5065949;28;20040;-69
2022/02/28 02:16:35;;;;;;;16.65;6.28;;;1.40;99.90;;;;;;5081704;28;20048;-68
2022/02/28 02:19:00;;;;;;;11.55;6.10;;;1.40;99.90;;;;;;5067751;28;20048;-68
2022/02/28 02:21:26;;;;;;;10.15;5.85;;;1.50;99.90;;;;;;5064935;28;20048;-68
2022/02/28 02:23:52;;;;;;;14.63;6.50;;;1.70;99.90;;;;;;5066204;28;20048;-68
2022/02/28 02:26:20;;;;;;;9.57;5.95;;;1.40;99.90;;;;;;5066288;28;20094;-68
2022/02/28 02:28:46;;;;;;;11.77;5.55;;;1.40;99.90;;;;;;5063928;28;20056;-68
2022/02/28 02:31:11;;;;;;;11.40;5.72;;;1.50;99.90;;;;;;5062766;28;20056;-68
2022/02/28 02:33:38;;;;;;;13.18;6.28;;;1.40;99.90;;;;;;5065741;28;20036;-68
2022/02/28 02:36:07;;;;;;;12.20;6.10;;;1.40;99.90;;;;;;5064193;28;20036;-68
2022/02/28 02:38:34;;;;;;;9.27;5.78;;;1.40;99.90;;;;;;5068296;28;20414;-69
2022/02/28 02:41:00;;;;;;;10.77;6.13;;;1.40;99.90;;;;;;5066239;28;20055;-68
2022/02/28 02:43:26;;;;;;;9.02;5.10;;;1.70;99.90;;;;;;5068316;28;20102;-68
2022/02/28 02:45:52;;;;;;;16.05;5.68;;;1.30;99.90;;;;;;5066353;28;20033;-69
2022/02/28 02:48:26;;;;;;;12.10;5.82;;;1.30;99.90;;;;;;5065521;28;20109;-69
2022/02/28 02:50:52;;;;;;;14.50;5.90;;;1.30;99.90;;;;;;5068877;28;20051;-69
2022/02/28 02:53:19;;;;;;;9.25;6.35;;;1.20;99.90;;;;;;5071712;28;20435;-68
2022/02/28 02:55:45;;;;;;;13.57;6.72;;;1.30;99.90;;;;;;5073492;28;20093;-68
2022/02/28 02:58:13;;;;;;;10.75;5.55;;;1.30;99.90;;;;;;5070392;28;20087;-68
2022/02/28 03:00:41;;;;;;;11.18;5.38;;;1.20;99.90;;;;;;5068767;28;20056;-68
2022/02/28 03:03:11;;;;;;;13.10;5.82;;;1.20;99.90;;;;;;5072265;28;20081;-68
2022/02/28 03:05:37;;;;;;;11.20;6.03;;;1.20;99.90;;;;;;5071869;28;20086;-69
2022/02/28 03:08:03;;;;;;;7.80;6.25;;;1.20;99.90;;;;;;5076791;28;20051;-68
2022/02/28 03:10:28;;;;;;;11.40;5.72;;;1.20;99.90;;;;;;5072264;28;20071;-68
2022/02/28 03:12:54;;;;;;;9.73;5.68;;;1.10;99.90;;;;;;5072014;28;20474;-68
2022/02/28 03:15:20;;;;;;;13.57;5.85;;;1.10;99.90;;;;;;5071191;28;20036;-68
2022/02/28 03:17:45;;;;;;;19.02;6.00;;;1.10;99.90;;;;;;5072140;28;20043;-68
2022/02/28 03:20:11;;;;;;;8.45;5.75;;;1.00;99.90;;;;;;5066873;28;20032;-68
2022/02/28 03:22:37;;;;;;;11.23;6.03;;;1.00;99.90;;;;;;5069054;28;20040;-69
2022/02/28 03:25:04;;;;;;;10.60;5.30;;;0.90;99.90;;;;;;5070520;28;20041;-68
2022/02/28 03:27:31;;;;;;;12.05;5.95;;;0.90;99.90;;;;;;5071362;28;20044;-68
2022/02/28 03:29:56;;;;;;;9.52;5.65;;;1.00;99.90;;;;;;5069743;28;20037;-68
2022/02/28 03:32:22;;;;;;;9.40;5.15;;;1.00;99.90;;;;;;5071447;28;20037;-68
2022/02/28 03:34:48;;;;;;;9.88;5.88;;;1.00;99.90;;;;;;5072420;28;20101;-68
2022/02/28 03:37:14;;;;;;;9.18;6.40;;;1.00;99.90;;;;;;5070382;28;20054;-68
2022/02/28 03:39:39;;;;;;;9.95;5.40;;;1.00;99.90;;;;;;5072504;28;20098;-68
2022/02/28 03:42:05;;;;;;;11.25;5.85;;;1.00;99.90;;;;;;5069282;28;20044;-68
2022/02/28 03:44:31;;;;;;;7.22;5.15;;;1.00;99.90;;;;;;5072339;28;20168;-68
2022/02/28 03:46:56;;;;;;;8.52;6.18;;;1.00;99.90;;;;;;5072062;28;20158;-68
2022/02/28 03:49:22;;;;;;;14.95;6.57;;;0.90;99.90;;;;;;5071709;28;20047;-68
2022/02/28 03:51:48;;;;;;;11.10;5.75;;;0.80;99.90;;;;;;5070709;28;20029;-68
2022/02/28 03:54:14;;;;;;;9.00;5.70;;;0.90;99.90;;;;;;5070369;28;20059;-68
2022/02/28 03:56:41;;;;;;;10.30;6.25;;;1.20;99.90;;;;;;5072664;28;20135;-68
2022/02/28 03:59:08;;;;;;;11.13;6.03;;;0.90;99.90;;;;;;5071254;28;20036;-68
2022/02/28 04:01:34;;;;;;;9.60;5.55;;;0.90;99.90;;;;;;5069269;28;20124;-68
2022/02/28 04:04:02;;;;;;;11.32;6.07;;;0.90;99.90;;;;;;5072140;28;20051;-68
2022/02/28 04:06:29;;;;;;;15.75;6.40;;;0.90;99.90;;;;;;5070491;28;20051;-68
2022/02/28 04:08:55;;;;;;;7.03;5.95;;;0.90;99.90;;;;;;5076414;28;20091;-68
2022/02/28 04:11:21;;;;;;;8.68;5.57;;;0.90;99.90;;;;;;5070158;28;20490;-68
2022/02/28 04:13:47;;;;;;;9.30;6.20;;;0.90;99.90;;;;;;5073421;28;20119;-68
2022/02/28 04:16:12;;;;;;;10.88;6.35;;;0.90;99.90;;;;;;5073269;28;20044;-68
2022/02/28 04:18:38;;;;;;;12.13;6.47;;;0.80;99.90;;;;;;5074012;28;20123;-69
2022/02/28 04:21:03;;;;;;;10.20;6.25;;;0.80;99.90;;;;;;5071098;28;20037;-68
2022/02/28 04:23:29;;;;;;;9.77;5.70;;;0.70;99.90;;;;;;5056876;28;20040;-68
2022/02/28 04:25:55;;;;;;;9.70;5.72;;;0.80;99.90;;;;;;5082175;28;20143;-68
2022/02/28 04:28:20;;;;;;;8.77;5.53;;;0.70;99.90;;;;;;5088312;28;20053;-67
2022/02/28 04:30:46;;;;;;;9.35;5.95;;;0.70;99.90;;;;;;5071420;28;20659;-68
2022/02/28 04:33:12;;;;;;;15.35;6.68;;;0.70;99.90;;;;;;5071476;28;20111;-68
2022/02/28 04:35:37;;;;;;;9.00;6.03;;;0.70;99.90;;;;;;5068322;28;20128;-68
2022/02/28 04:38:05;;;;;;;8.75;5.63;;;0.70;99.90;;;;;;5072502;28;20032;-68
2022/02/28 04:40:31;;;;;;;10.60;6.63;;;0.70;99.90;;;;;;5080560;28;20041;-68
2022/02/28 04:42:57;;;;;;;9.40;5.53;;;0.70;99.90;;;;;;5067234;28;20679;-69
2022/02/28 04:45:23;;;;;;;9.85;5.82;;;0.60;99.90;;;;;;5070598;28;20040;-68
2022/02/28 04:47:49;;;;;;;12.13;6.85;;;0.70;99.90;;;;;;5069528;28;20036;-68
2022/02/28 04:50:14;;;;;;;12.40;6.22;;;0.60;99.90;;;;;;5067635;28;20048;-68
2022/02/28 04:52:40;;;;;;;13.95;6.68;;;0.50;99.90;;;;;;5072219;28;20538;-68
2022/02/28 04:55:06;;;;;;;12.15;6.03;;;0.50;99.90;;;;;;5069133;28;20044;-69
2022/02/28 04:57:39;;;;;;;8.45;6.35;;;0.50;99.90;;;;;;5057078;28;20506;-68
2022/02/28 05:00:09;;;;;;;13.32;6.25;;;0.50;99.90;;;;;;5070490;28;20040;-68
2022/02/28 05:02:34;;;;;;;10.07;5.97;;;0.50;99.90;;;;;;5071584;28;20028;-68
2022/02/28 05:05:00;;;;;;;12.00;6.18;;;0.50;99.90;;;;;;5067344;28;20041;-68
2022/02/28 05:07:26;;;;;;;12.40;7.53;;;0.50;99.90;;;;;;5068833;28;20078;-68
2022/02/28 05:09:52;;;;;;;8.45;6.13;;;0.60;99.90;;;;;;5073162;28;20473;-68
2022/02/28 05:12:17;;;;;;;13.27;7.45;;;0.60;99.90;;;;;;5069852;28;20032;-68
2022/02/28 05:14:43;;;;;;;11.45;7.20;;;0.30;99.90;;;;;;5068259;28;20036;-69
2022/02/28 05:17:08;;;;;;;12.23;7.25;;;0.30;99.90;;;;;;5066639;28;20548;-68
2022/02/28 05:19:34;;;;;;;13.30;7.60;;;0.30;99.90;;;;;;5068230;28;20139;-68
2022/02/28 05:22:02;;;;;;;9.75;6.60;;;0.30;99.90;;;;;;5066245;28;20048;-68
2022/02/28 05:24:30;;;;;;;15.13;8.63;;;0.40;99.90;;;;;;5068457;28;20070;-68
2022/02/28 05:26:55;;;;;;;12.85;7.40;;;0.30;99.90;;;;;;5096724;28;20089;-68
2022/02/28 05:29:27;;;;;;;10.30;7.25;;;0.30;99.90;;;;;;5069664;28;20044;-68
2022/02/28 05:31:54;;;;;;;13.82;7.35;;;0.30;99.90;;;;;;5068556;28;20033;-68
2022/02/28 05:34:20;;;;;;;11.18;7.75;;;0.40;99.90;;;;;;5069049;28;20491;-68
2022/02/28 05:36:45;;;;;;;13.57;7.40;;;0.40;99.90;;;;;;5069300;28;20048;-68
2022/02/28 05:39:11;;;;;;;12.60;7.53;;;0.30;99.90;;;;;;5068304;28;20089;-69
2022/02/28 05:41:37;;;;;;;14.68;7.55;;;0.30;99.90;;;;;;5069738;28;20040;-68
2022/02/28 05:44:03;;;;;;;10.57;6.88;;;0.30;99.90;;;;;;5066666;28;20079;-68
2022/02/28 05:46:29;;;;;;;14.93;8.60;;;0.30;99.90;;;;;;5065032;28;20045;-68
2022/02/28 05:48:54;;;;;;;10.25;7.07;;;0.40;99.90;;;;;;5063813;28;20063;-68
2022/02/28 05:51:20;;;;;;;11.25;7.90;;;0.40;99.90;;;;;;5066614;28;20065;-68
2022/02/28 05:53:46;;;;;;;13.48;7.22;;;0.30;99.90;;;;;;5067320;28;20395;-68
2022/02/28 05:56:12;;;;;;;12.80;7.53;;;0.30;99.90;;;;;;5068058;28;20101;-68
2022/02/28 05:58:37;;;;;;;9.43;6.97;;;0.40;99.90;;;;;;5065061;28;20040;-68
2022/02/28 06:01:03;;;;;;;11.90;7.50;;;0.40;99.90;;;;;;5067504;28;20509;-69
2022/02/28 06:03:29;;;;;;;14.25;7.32;;;0.40;99.90;;;;;;5062635;28;20499;-68
2022/02/28 06:05:55;;;;;;;12.93;7.38;;;0.40;99.90;;;;;;5065430;28;20051;-68
2022/02/28 06:08:20;;;;;;;13.23;7.55;;;0.40;99.90;;;;;;5068589;28;20043;-68
2022/02/28 06:10:46;;;;;;;13.68;8.00;;;0.30;99.90;;;;;;5070272;28;20044;-68
2022/02/28 06:13:11;;;;;;;11.88;7.47;;;0.30;99.90;;;;;;5066249;28;20125;-68
2022/02/28 06:15:41;;;;;;;12.27;7.55;;;0.40;99.90;;;;;;5085861;28;20048;-68
2022/02/28 06:18:11;;;;;;;9.73;7.05;;;0.40;99.90;;;;;;5058981;28;20036;-68
2022/02/28 06:20:41;;;;;;;13.02;7.68;;;0.30;99.90;;;;;;5061986;28;20125;-68
2022/02/28 06:23:09;;;;;;;14.60;7.45;;;0.30;99.90;;;;;;5065842;28;20067;-69
2022/02/28 06:25:36;;;;;;;13.23;7.60;;;0.30;99.90;;;;;;5064867;28;20047;-69
2022/02/28 06:28:03;;;;;;;15.75;7.25;;;0.70;99.90;;;;;;5065856;28;20040;-69
2022/02/28 06:30:28;;;;;;;12.20;8.02;;;0.30;99.90;;;;;;5095602;28;20127;-69
2022/02/28 06:32:54;;;;;;;13.80;7.90;;;0.50;99.90;;;;;;5047330;28;20059;-69
2022/02/28 06:35:20;;;;;;;10.82;7.80;;;0.30;99.90;;;;;;5065834;28;20383;-68
2022/02/28 06:37:46;;;;;;;10.50;7.40;;;0.20;99.90;;;;;;5069512;28;20075;-69
2022/02/28 06:40:12;;;;;;;14.23;7.80;;;0.30;99.90;;;;;;5068260;28;20047;-68
2022/02/28 06:42:38;;;;;;;14.27;8.00;;;0.20;99.90;;;;;;5067898;28;20077;-69
2022/02/28 06:45:05;;;;;;;13.07;7.93;;;0.20;99.90;;;;;;5068992;28;20032;-69
2022/02/28 06:47:31;;;;;;;11.57;7.90;;;0.20;99.90;;;;;;5065062;28;20109;-69
2022/02/28 06:49:56;;;;;;;13.88;8.13;;;0.30;99.90;;;;;;5064331;28;20036;-69
2022/02/28 06:52:24;;;;;;;11.10;7.50;;;0.30;99.90;;;;;;5068000;28;20110;-69
2022/02/28 06:54:53;;;;;;;10.25;7.63;;;0.40;99.90;;;;;;5067871;28;20044;-69
2022/02/28 06:57:19;;;;;;;11.95;8.20;;;0.40;99.90;;;;;;5065975;28;20044;-69
2022/02/28 06:59:44;;;;;;;13.20;8.35;;;0.50;99.90;;;;;;5070726;28;20438;-69
2022/02/28 07:02:10;;;;;;;15.70;8.10;;;0.60;99.90;;;;;;5061714;28;20059;-69
2022/02/28 07:04:36;;;;;;;14.75;8.70;;;0.60;99.90;;;;;;5065501;28;20682;-69
2022/02/28 07:07:02;;;;;;;11.45;7.63;;;0.80;99.90;;;;;;5065560;28;20099;-70
2022/02/28 07:09:28;;;;;;;12.00;8.02;;;0.80;99.90;;;;;;5094704;28;20091;-69
2022/02/28 07:11:54;;;;;;;13.07;7.90;;;0.90;99.90;;;;;;5062364;28;20089;-69
2022/02/28 07:14:20;;;;;;;14.63;8.23;;;0.90;99.90;;;;;;5060202;28;20040;-69
2022/02/28 07:16:45;;;;;;;15.48;8.05;;;1.00;99.90;;;;;;5063253;28;20084;-69
2022/02/28 07:19:11;;;;;;;11.88;7.50;;;1.10;99.90;;;;;;5061458;28;20044;-69
2022/02/28 07:21:38;;;;;;;12.68;8.38;;;1.20;99.90;;;;;;5059023;28;20067;-69
2022/02/28 07:24:04;;;;;;;14.90;8.23;;;1.30;99.90;;;;;;5093011;28;20048;-70
2022/02/28 07:26:30;;;;;;;13.15;7.30;;;1.40;99.90;;;;;;5067182;28;20072;-69
2022/02/28 07:28:56;;;;;;;16.02;7.65;;;1.40;99.90;;;;;;5062396;28;20041;-69
2022/02/28 07:31:22;;;;;;;13.55;6.93;;;1.50;99.90;;;;;;5066391;28;20068;-69
2022/02/28 07:33:48;;;;;;;12.63;7.07;;;1.60;99.90;;;;;;5065313;28;20105;-69
2022/02/28 07:36:14;;;;;;;11.25;7.13;;;1.70;99.90;;;;;;5064316;28;20044;-69
2022/02/28 07:38:40;;;;;;;10.18;6.93;;;1.70;99.90;;;;;;5067357;28;20129;-69
2022/02/28 07:41:06;;;;;;;14.52;7.40;;;1.80;99.90;;;;;;5100111;28;20072;-69
2022/02/28 07:43:32;;;;;;;10.85;7.28;;;1.80;99.90;;;;;;5067473;28;20501;-69
2022/02/28 07:45:58;;;;;;;11.82;7.65;;;1.90;99.90;;;;;;5100699;28;20041;-69
2022/02/28 07:48:24;;;;;;;10.27;7.65;;;1.90;99.90;;;;;;5065845;28;20040;-69
2022/02/28 07:50:50;;;;;;;11.68;6.57;;;2.10;99.90;;;;;;5068581;28;20039;-69
2022/02/28 07:53:15;;;;;;;10.20;6.53;;;2.00;99.90;;;;;;5066286;28;20033;-70
2022/02/28 07:55:41;;;;;;;8.48;6.28;;;2.20;99.90;;;;;;5068013;28;20105;-69
2022/02/28 07:58:06;;;;;;;11.20;7.15;;;2.20;99.90;;;;;;5066894;28;20491;-69
2022/02/28 08:00:32;;;;;;;10.60;6.95;;;2.30;99.90;;;;;;5067155;28;20044;-69
2022/02/28 08:02:58;;;;;;;13.20;6.47;;;2.40;99.90;;;;;;5066373;28;20054;-69
2022/02/28 08:05:25;;;;;;;10.43;6.38;;;2.40;99.90;;;;;;5066975;28;20063;-69
2022/02/28 08:07:50;;;;;;;11.82;6.93;;;2.50;99.90;;;;;;5067267;28;20040;-69
2022/02/28 08:10:16;;;;;;;10.90;6.70;;;2.60;99.90;;;;;;5066619;28;20025;-69
2022/02/28 08:12:42;;;;;;;12.60;6.38;;;2.60;99.90;;;;;;5066235;28;20438;-69
2022/02/28 08:15:08;;;;;;;11.95;6.90;;;2.70;99.90;;;;;;5066977;28;20044;-69
2022/02/28 08:17:34;;;;;;;12.10;6.68;;;2.70;99.90;;;;;;5066624;28;20561;-69
2022/02/28 08:20:00;;;;;;;10.15;7.50;;;2.80;99.90;;;;;;5065104;28;20064;-69
2022/02/28 08:22:25;;;;;;;12.80;6.80;;;2.90;99.90;;;;;;5061796;28;20045;-69
2022/02/28 08:24:51;;;;;;;8.70;6.53;;;3.00;99.90;;;;;;5067903;28;20536;-69
2022/02/28 08:27:18;;;;;;;8.85;6.10;;;3.00;99.90;;;;;;5092591;28;20527;-70
2022/02/28 08:29:43;;;;;;;9.48;6.78;;;3.10;99.90;;;;;;5064539;28;20756;-70
2022/02/28 08:32:09;;;;;;;10.73;6.78;;;3.10;99.90;;;;;;5057133;28;20124;-71
2022/02/28 08:34:34;;;;;;;11.93;7.00;;;3.20;99.90;;;;;;5056880;28;20549;-71
2022/02/28 08:37:00;;;;;;;10.25;6.82;;;3.20;99.90;;;;;;5082319;28;20502;-72
2022/02/28 08:39:26;;;;;;;9.35;6.28;;;3.30;99.90;;;;;;5065840;28;20037;-71
2022/02/28 08:41:51;;;;;;;11.45;6.82;;;3.30;99.90;;;;;;5092840;28;20068;-70
2022/02/28 08:44:17;;;;;;;13.10;6.43;;;3.40;99.90;;;;;;5067894;28;20077;-71
2022/02/28 08:46:42;;;;;;;9.77;7.03;;;3.40;99.90;;;;;;5065893;28;20121;-71
2022/02/28 08:49:08;;;;;;;8.30;6.35;;;3.50;99.90;;;;;;5060796;28;20036;-71
2022/02/28 08:51:34;;;;;;;8.07;6.38;;;3.50;99.90;;;;;;5064710;28;20073;-71
2022/02/28 08:53:59;;;;;;;11.18;6.18;;;3.60;99.90;;;;;;5055689;28;20058;-71
2022/02/28 08:56:25;;;;;;;11.15;6.95;;;3.70;99.90;;;;;;5065740;28;20501;-71
2022/02/28 08:58:51;;;;;;;8.05;5.78;;;3.70;99.90;;;;;;5065483;28;20044;-71
2022/02/28 09:01:17;;;;;;;12.23;6.50;;;3.90;99.90;;;;;;5061840;28;20044;-71
2022/02/28 09:03:44;;;;;;;10.00;6.20;;;4.00;99.90;;;;;;5065654;28;22220;-71
2022/02/28 09:06:09;;;;;;;11.40;6.80;;;4.10;99.90;;;;;;5065673;28;20049;-71
2022/02/28 09:08:35;;;;;;;12.07;7.22;;;4.20;99.90;;;;;;5065512;28;20033;-71
2022/02/28 09:11:00;;;;;;;9.45;6.25;;;4.40;99.90;;;;;;5065073;28;20550;-71
2022/02/28 09:13:26;;;;;;;8.82;6.15;;;4.60;99.90;;;;;;5064343;28;20040;-72
2022/02/28 09:15:53;;;;;;;11.98;6.45;;;4.70;99.90;;;;;;5062237;28;20424;-71
2022/02/28 09:18:20;;;;;;;10.82;6.18;;;4.80;99.90;;;;;;5067604;28;20036;-71
2022/02/28 09:20:46;;;;;;;8.52;5.95;;;5.00;99.90;;;;;;5063072;28;20041;-71
2022/02/28 09:23:12;;;;;;;8.85;7.10;;;5.10;99.90;;;;;;5069928;28;20046;-71
2022/02/28 09:25:37;;;;;;;9.63;6.28;;;5.30;99.90;;;;;;5066891;28;20118;-71
2022/02/28 09:28:03;;;;;;;10.68;6.55;;;5.40;99.90;;;;;;5068394;28;20086;-71
2022/02/28 09:30:29;;;;;;;9.88;6.75;;;5.50;99.90;;;;;;5062517;28;20463;-72
2022/02/28 09:32:55;;;;;;;10.98;6.30;;;5.70;99.90;;;;;;5063119;28;20037;-71
2022/02/28 09:35:21;;;;;;;13.20;7.03;;;5.80;99.90;;;;;;5066374;28;21525;-72
2022/02/28 09:37:47;;;;;;;8.98;6.75;;;5.90;99.90;;;;;;5049617;28;20055;-72
2022/02/28 09:40:13;;;;;;;10.48;7.10;;;6.00;99.20;;;;;;5063865;28;20124;-71
2022/02/28 09:42:40;;;;;;;7.88;6.43;;;6.10;98.90;;;;;;5078184;28;20052;-71
2022/02/28 09:45:06;;;;;;;9.52;6.53;;;6.20;99.10;;;;;;5068257;28;20051;-71
2022/02/28 09:47:32;;;;;;;8.75;6.13;;;6.30;99.10;;;;;;5063631;28;20044;-71
2022/02/28 09:49:58;;;;;;;8.68;5.78;;;6.40;96.90;;;;;;5069296;28;20028;-72
2022/02/28 09:52:24;;;;;;;12.80;5.93;;;6.50;96.70;;;;;;5073466;28;20578;-72
2022/02/28 09:54:51;;;;;;;9.90;5.78;;;6.40;94.60;;;;;;5069428;28;20704;-71
2022/02/28 09:57:21;;;;;;;11.00;7.13;;;6.50;94.10;;;;;;5068232;28;20040;-71
2022/02/28 09:59:47;;;;;;;9.80;6.15;;;6.70;95.00;;;;;;5093862;28;20056;-71
2022/02/28 10:02:13;;;;;;;11.80;6.05;;;6.70;93.60;;;;;;5043771;28;20102;-71
2022/02/28 10:04:39;;;;;;;11.20;5.75;;;6.80;93.60;;;;;;5064727;28;20045;-71
2022/02/28 10:07:17;;;;;;;9.35;5.85;;;6.80;92.90;;;;;;5065365;28;20093;-71
2022/02/28 10:09:42;;;;;;;9.55;6.35;;;6.90;91.90;;;;;;5063911;28;20160;-71
2022/02/28 10:12:08;;;;;;;7.32;5.20;;;6.90;91.60;;;;;;5064485;28;20127;-71
2022/02/28 10:14:44;;;;;;;8.88;5.10;;;6.90;90.90;;;;;;5064103;28;20395;-71
2022/02/28 10:17:10;;;;;;;;;;;7.00;90.40;;;;;;5062057;28;20040;-72
2022/02/28 10:19:36;;;;;;;9.63;6.15;;;7.00;91.40;;;;;;5063384;28;19931;-71
2022/02/28 10:22:04;;;;;;;7.75;5.72;;;7.10;90.50;;;;;;5096971;28;20132;-72
2022/02/28 10:24:34;;;;;;;9.40;5.72;;;7.10;90.70;;;;;;5064814;28;20040;-71
2022/02/28 10:27:01;;;;;;;12.10;6.10;;;7.30;90.10;;;;;;5063820;28;20040;-71
2022/02/28 10:29:29;;;;;;;9.00;5.25;;;7.30;88.40;;;;;;5064421;28;20451;-71
2022/02/28 10:32:13;;;;;;;9.93;6.03;;;7.40;87.30;;;;;;5064108;28;20048;-71
2022/02/28 10:35:59;;;;;;;7.75;5.72;;;7.50;88.40;;;;;;5062821;28;20105;-72
2022/02/28 10:37:24;;;;;;;;;;;7.50;88.00;;;;;;5064582;28;20056;-69
2022/02/28 10:39:59;;;;;;;8.17;5.93;;;7.60;86.40;;;;;;5064354;28;20329;-71
2022/02/28 10:42:25;;;;;;;8.25;5.75;;;7.70;88.80;;;;;;5043245;28;20294;-71
2022/02/28 10:45:25;;;;;;;9.70;6.30;;;7.80;87.50;;;;;;5063875;28;20052;-72
2022/02/28 10:47:53;;;;;;;9.18;6.15;;;7.90;86.40;;;;;;5065768;28;20055;-71
2022/02/28 10:50:38;;;;;;;9.88;5.25;;;8.10;85.30;;;;;;5062833;28;20059;-71
2022/02/28 10:53:10;;;;;;;8.43;5.15;;;8.20;85.90;;;;;;5064562;28;20551;-71
2022/02/28 10:55:35;;;;;;;10.02;5.93;;;8.40;86.20;;;;;;5062975;28;20102;-71
2022/02/28 10:58:05;;;;;;;9.25;6.43;;;8.60;85.70;;;;;;5063295;28;20391;-71
2022/02/28 11:00:31;;;;;;;7.53;5.65;;;8.60;82.80;;;;;;5062648;28;20067;-71
2022/02/28 11:03:05;;;;;;;7.60;5.72;;;8.70;81.00;;;;;;5060600;28;20068;-71
2022/02/28 11:05:31;;;;;;;8.90;5.40;;;8.70;79.80;;;;;;5062139;28;20032;-71
2022/02/28 11:07:59;;;;;;;8.20;5.63;;;8.80;78.30;;;;;;5065867;28;20376;-71
2022/02/28 11:10:25;;;;;;;10.85;6.22;;;8.90;80.00;;;;;;5060936;28;20660;-72
2022/02/28 11:12:51;;;;;;;7.63;5.38;;;9.10;76.70;;;;;;5064521;28;20395;-72
2022/02/28 11:15:20;;;;;;;9.00;5.95;;;9.10;77.60;;;;;;5053947;28;20044;-72
2022/02/28 11:17:48;;;;;;;7.45;5.50;;;9.20;79.20;;;;;;5069170;28;20044;-72
2022/02/28 11:20:17;;;;;;;5.85;5.25;;;9.30;79.50;;;;;;5068313;28;20048;-72
2022/02/28 11:22:45;;;;;;;8.90;5.22;;;9.40;76.50;;;;;;5065534;28;20483;-72
2022/02/28 11:25:14;;;;;;;6.60;5.00;;;9.50;74.00;;;;;;5069677;28;20047;-72
2022/02/28 11:27:43;;;;;;;8.52;5.68;;;9.60;76.50;;;;;;5069704;28;20048;-72
2022/02/28 11:30:15;;;;;;;8.15;5.85;;;9.60;75.30;;;;;;5065125;28;20467;-72
2022/02/28 11:32:42;;;;;;;8.57;5.82;;;9.80;75.00;;;;;;5067540;28;20032;-72
2022/02/28 11:35:39;;;;;;;7.90;5.35;;;9.80;75.30;;;;;;5062849;28;20036;-73
2022/02/28 11:38:32;;;;;;;5.95;5.35;;;9.90;76.30;;;;;;5065738;28;20051;-72
2022/02/28 11:41:02;;;;;;;10.35;5.85;;;9.90;74.10;;;;;;5060774;28;20047;-72
2022/02/28 11:43:33;;;;;;;8.30;5.88;;;9.80;75.40;;;;;;5097051;28;20170;-72
2022/02/28 11:46:05;;;;;;;7.30;5.95;;;9.90;73.00;;;;;;5062661;28;20539;-72
2022/02/28 11:48:40;;;;;;;8.55;5.90;;;10.00;73.10;;;;;;5064246;28;20533;-73
2022/02/28 11:51:19;;;;;;;7.95;5.53;;;10.10;74.10;;;;;;5064314;28;20048;-72
2022/02/28 11:53:53;;;;;;;10.70;6.20;;;10.20;71.60;;;;;;5063139;28;20048;-73
2022/02/28 11:56:18;;;;;;;8.73;5.97;;;10.20;72.00;;;;;;5067848;28;20098;-72
2022/02/28 11:58:55;;;;;;;7.10;6.40;;;10.20;69.80;;;;;;5068919;28;20043;-72
2022/02/28 12:01:38;;;;;;;7.35;5.82;;;10.30;70.80;;;;;;5066961;28;20048;-72
2022/02/28 12:04:06;;;;;;;7.88;5.97;;;10.30;71.00;;;;;;5065110;28;20658;-72
2022/02/28 12:06:52;;;;;;;7.32;5.90;;;10.50;69.80;;;;;;5067547;28;20041;-72
2022/02/28 12:09:33;;;;;;;9.48;5.80;;;10.60;74.30;;;;;;5066994;28;20059;-72
2022/02/28 12:12:33;;;;;;;7.28;5.72;;;10.70;73.80;;;;;;5096196;28;20040;-73
2022/02/28 12:15:02;;;;;;;12.98;5.93;;;10.60;70.00;;;;;;5066893;28;20083;-72
2022/02/28 12:20:15;;;;;;;6.63;5.28;;;10.60;69.90;;;;;;5065447;28;20086;-73
2022/02/28 12:22:52;;;;;;;9.45;5.78;;;10.70;71.80;;;;;;5067089;28;20037;-73
2022/02/28 12:25:39;;;;;;;7.32;5.63;;;10.80;70.70;;;;;;5063221;28;20033;-73
2022/02/28 12:28:20;;;;;;;8.73;5.50;;;10.90;69.70;;;;;;5067031;28;21669;-73
2022/02/28 12:30:54;;;;;;;8.75;5.78;;;11.00;69.30;;;;;;5065768;28;20559;-73
2022/02/28 12:33:25;;;;;;;7.95;5.90;;;11.00;68.60;;;;;;5097721;28;20045;-73
2022/02/28 12:36:00;;;;;;;13.55;7.32;;;10.90;68.90;;;;;;5068664;28;20045;-73
2022/02/28 12:38:28;;;;;;;6.65;5.50;;;10.60;70.40;;;;;;5065915;28;20043;-72
2022/02/28 12:41:04;;;;;;;7.95;5.93;;;10.60;71.30;;;;;;5066014;28;20083;-72
2022/02/28 12:43:30;;;;;;;7.60;5.70;;;10.80;70.90;;;;;;5065971;28;20510;-73
2022/02/28 12:45:59;;;;;;;8.02;5.93;;;10.90;71.10;;;;;;5067588;28;20449;-72
2022/02/28 12:48:27;;;;;;;7.65;5.10;;;10.70;70.20;;;;;;5068770;28;20490;-73
2022/02/28 12:50:54;;;;;;;8.05;5.90;;;10.90;70.30;;;;;;5065135;28;20083;-73
2022/02/28 12:53:23;;;;;;;7.05;5.40;;;10.90;70.70;;;;;;5064645;28;20127;-72